TimePDT,TemperatureF,Dew PointF,Humidity,Sea Level PressureIn,VisibilityMPH,Wind Direction,Wind SpeedMPH,Gust SpeedMPH,PrecipitationIn,Events,Conditions,WindDirDegrees,DateUTC
12:15 AM,41.0,24.8,53,30.12,10.0,SSW,3.5,-,N/A,,Clear,210,2013-03-16 07:15:00
12:35 AM,39.2,24.8,56,30.11,10.0,SW,4.6,-,N/A,,Mostly Cloudy,230,2013-03-16 07:35:00
12:55 AM,39.2,26.6,61,30.11,10.0,South,5.8,-,N/A,,Overcast,190,2013-03-16 07:55:00
1:15 AM,39.2,26.6,61,30.10,10.0,South,5.8,-,N/A,,Mostly Cloudy,180,2013-03-16 08:15:00
1:35 AM,39.2,26.6,61,30.10,10.0,South,4.6,-,N/A,,Mostly Cloudy,190,2013-03-16 08:35:00
1:55 AM,39.2,26.6,61,30.10,10.0,South,5.8,-,N/A,,Partly Cloudy,180,2013-03-16 08:55:00
2:15 AM,41.0,23.0,49,30.10,10.0,SSW,9.2,-,N/A,,Scattered Clouds,200,2013-03-16 09:15:00
2:35 AM,41.0,24.8,53,30.10,10.0,SSW,8.1,-,N/A,,Scattered Clouds,200,2013-03-16 09:35:00
2:55 AM,41.0,26.6,57,30.10,10.0,South,6.9,-,N/A,,Mostly Cloudy,190,2013-03-16 09:55:00
3:15 AM,41.0,23.0,49,30.08,10.0,South,5.8,-,N/A,,Scattered Clouds,170,2013-03-16 10:15:00
3:35 AM,42.8,23.0,46,30.08,10.0,East,4.6,-,N/A,,Clear,90,2013-03-16 10:35:00
3:55 AM,41.0,23.0,49,30.07,10.0,South,5.8,-,N/A,,Partly Cloudy,170,2013-03-16 10:55:00
4:15 AM,41.0,21.2,45,30.07,10.0,SW,4.6,-,N/A,,Clear,230,2013-03-16 11:15:00
4:35 AM,37.4,23.0,56,30.08,10.0,Calm,Calm,-,N/A,,Clear,0,2013-03-16 11:35:00
4:55 AM,35.6,24.8,65,30.08,10.0,Calm,Calm,-,N/A,,Clear,0,2013-03-16 11:55:00
5:15 AM,35.6,23.0,60,30.08,10.0,Calm,Calm,-,N/A,,Clear,0,2013-03-16 12:15:00
5:35 AM,35.6,23.0,60,30.09,10.0,SSW,6.9,-,N/A,,Clear,200,2013-03-16 12:35:00
5:55 AM,32.0,23.0,69,30.09,10.0,Calm,Calm,-,N/A,,Clear,0,2013-03-16 12:55:00
6:15 AM,30.2,23.0,75,30.10,10.0,ENE,6.9,-,N/A,,Clear,60,2013-03-16 13:15:00
6:35 AM,28.4,23.0,80,30.10,10.0,ESE,4.6,-,N/A,,Clear,110,2013-03-16 13:35:00
6:55 AM,28.4,23.0,80,30.10,10.0,Calm,Calm,-,N/A,,Clear,0,2013-03-16 13:55:00
7:15 AM,26.6,21.2,80,30.10,10.0,Calm,Calm,-,N/A,,Clear,0,2013-03-16 14:15:00
7:35 AM,28.4,23.0,80,30.11,10.0,Calm,Calm,-,N/A,,Clear,0,2013-03-16 14:35:00
7:55 AM,32.0,24.8,75,30.11,10.0,Calm,Calm,-,N/A,,Clear,0,2013-03-16 14:55:00
8:15 AM,37.4,26.6,65,30.11,10.0,Calm,Calm,-,N/A,,Clear,0,2013-03-16 15:15:00
8:35 AM,41.0,24.8,53,30.11,10.0,Calm,Calm,-,N/A,,Clear,0,2013-03-16 15:35:00
8:55 AM,46.4,19.4,34,30.12,10.0,Calm,Calm,-,N/A,,Clear,0,2013-03-16 15:55:00
9:15 AM,48.2,21.2,34,30.11,10.0,Calm,Calm,-,N/A,,Clear,0,2013-03-16 16:15:00
9:35 AM,50.0,19.4,30,30.11,10.0,Calm,Calm,-,N/A,,Clear,0,2013-03-16 16:35:00
9:55 AM,51.8,19.4,28,30.11,10.0,Calm,Calm,-,N/A,,Clear,0,2013-03-16 16:55:00
10:15 AM,53.6,21.2,28,30.10,10.0,Calm,Calm,-,N/A,,Clear,0,2013-03-16 17:15:00
10:35 AM,53.6,23.0,30,30.11,10.0,ENE,5.8,-,N/A,,Clear,60,2013-03-16 17:35:00
10:55 AM,53.6,21.2,28,30.11,10.0,Calm,Calm,-,N/A,,Clear,0,2013-03-16 17:55:00
11:15 AM,55.4,21.2,26,30.10,10.0,Calm,Calm,-,N/A,,Clear,0,2013-03-16 18:15:00
11:35 AM,55.4,23.0,29,30.09,10.0,NE,5.8,-,N/A,,Clear,40,2013-03-16 18:35:00
11:55 AM,57.2,19.4,23,30.07,10.0,SE,3.5,-,N/A,,Clear,130,2013-03-16 18:55:00
12:15 PM,57.2,19.4,23,30.07,10.0,Calm,Calm,-,N/A,,Clear,0,2013-03-16 19:15:00
12:35 PM,59.0,14.0,17,30.06,10.0,West,10.4,18.4,N/A,,Clear,270,2013-03-16 19:35:00
12:55 PM,60.8,12.2,15,30.05,10.0,NNW,15.0,20.7,N/A,,Clear,340,2013-03-16 19:55:00
1:15 PM,60.8,14.0,16,30.05,10.0,NW,13.8,19.6,N/A,,Clear,320,2013-03-16 20:15:00
1:35 PM,60.8,15.8,17,30.04,10.0,NNW,12.7,20.7,N/A,,Clear,340,2013-03-16 20:35:00
1:55 PM,60.8,15.8,17,30.03,10.0,West,11.5,20.7,N/A,,Clear,270,2013-03-16 20:55:00
2:15 PM,60.8,15.8,17,30.01,10.0,NNW,11.5,16.1,N/A,,Clear,330,2013-03-16 21:15:00
2:35 PM,60.8,14.0,16,30.00,10.0,WNW,9.2,18.4,N/A,,Clear,290,2013-03-16 21:35:00
2:55 PM,60.8,14.0,16,29.99,10.0,West,11.5,17.3,N/A,,Clear,270,2013-03-16 21:55:00
3:15 PM,60.8,15.8,17,29.98,10.0,WNW,13.8,20.7,N/A,,Clear,290,2013-03-16 22:15:00
3:55 PM,59.0,14.0,17,29.97,10.0,West,16.1,21.9,N/A,,Clear,280,2013-03-16 22:55:00
4:15 PM,60.8,15.8,17,29.96,10.0,WNW,9.2,19.6,N/A,,Clear,300,2013-03-16 23:15:00
4:35 PM,60.8,15.8,17,29.96,10.0,West,10.4,17.3,N/A,,Clear,270,2013-03-16 23:35:00
4:55 PM,59.0,15.8,19,29.95,10.0,NW,4.6,-,N/A,,Partly Cloudy,310,2013-03-16 23:55:00
5:15 PM,60.8,17.6,19,29.95,10.0,NW,8.1,18.4,N/A,,Partly Cloudy,310,2013-03-17 00:15:00
5:35 PM,59.0,17.6,20,29.94,10.0,West,9.2,-,N/A,,Clear,280,2013-03-17 00:35:00
5:55 PM,59.0,15.8,19,29.94,10.0,WNW,10.4,-,N/A,,Clear,290,2013-03-17 00:55:00
6:15 PM,55.4,14.0,20,29.94,10.0,WNW,13.8,21.9,N/A,,Clear,300,2013-03-17 01:15:00
6:35 PM,53.6,17.6,24,29.95,10.0,NW,9.2,-,N/A,,Clear,310,2013-03-17 01:35:00
6:55 PM,50.0,17.6,28,29.95,10.0,NW,10.4,-,N/A,,Clear,320,2013-03-17 01:55:00
7:15 PM,48.2,17.6,30,29.95,10.0,NW,9.2,-,N/A,,Clear,320,2013-03-17 02:15:00
7:35 PM,50.0,15.8,26,29.95,10.0,NNW,6.9,18.4,N/A,,Clear,340,2013-03-17 02:35:00
7:55 PM,48.2,15.8,27,29.95,10.0,Calm,Calm,-,N/A,,Clear,0,2013-03-17 02:55:00
8:15 PM,46.4,17.6,32,29.95,10.0,Calm,Calm,-,N/A,,Clear,0,2013-03-17 03:15:00
8:35 PM,42.8,19.4,39,29.95,10.0,SSE,9.2,-,N/A,,Scattered Clouds,160,2013-03-17 03:35:00
8:55 PM,42.8,19.4,39,29.95,10.0,South,3.5,-,N/A,,Mostly Cloudy,180,2013-03-17 03:55:00
9:15 PM,44.6,17.6,34,29.95,10.0,West,4.6,-,N/A,,Mostly Cloudy,280,2013-03-17 04:15:00
9:35 PM,50.0,15.8,26,29.95,10.0,WNW,12.7,19.6,N/A,,Mostly Cloudy,290,2013-03-17 04:35:00
9:55 PM,50.0,17.6,28,29.96,10.0,NW,8.1,-,N/A,,Overcast,310,2013-03-17 04:55:00
10:35 PM,50.0,19.4,30,29.98,10.0,WNW,11.5,24.2,N/A,,Overcast,300,2013-03-17 05:35:00
10:55 PM,48.2,19.4,32,29.97,10.0,West,12.7,23.0,N/A,,Mostly Cloudy,270,2013-03-17 05:55:00
11:15 PM,46.4,21.2,37,29.97,10.0,West,10.4,16.1,N/A,,Partly Cloudy,270,2013-03-17 06:15:00
11:35 PM,46.4,19.4,34,29.97,10.0,West,8.1,-,N/A,,Clear,280,2013-03-17 06:35:00
11:55 PM,42.8,23.0,46,29.98,10.0,NNW,9.2,-,N/A,,Clear,340,2013-03-17 06:55:00